Baltimore, Maryland
Traffic Map
Current Weather Conditions
Baltimore, Maryland
Overcast
Overcast
26°
Feels Like: 27°
Wind Chill: 26° Ceiling: 9500
Heat Index: 27° Visibility: 10mi
Dew Point: 21° Wind: 5mph
Humidity: 74% Direction: 100° (E)
Pressure: 29.96in Gusts: 0mph
Raw Report DataKBWI 222054Z 10004KT 10SM FEW019 BKN095 OVC250 26/21 A2996 RMK AO2 SLP143 60000 T02560206 58009
Traffic Incident Summary
Active as of:
Severity:
Category:
InformationThere was an issue retrieving the traffic information for this location. Please try a different location or try again shortly.
Advertisements
Track Severe Weather on mobile